Time;durP1;ratioP1;P1;durP2;ratioP2;P2;SDS_P1;SDS_P2;PMS_P1;PMS_P2;Temp;Humidity;BMP_temperature;BMP_pressure;BME280_temperature;BME280_humidity;BME280_pressure;Samples;Min_cycle;Max_cycle;Signal;HPM_P1;HPM_P2
2022/12/20 00:02:06;;;;;;;1.20;1.10;;;;;;;;;;5051359;27;94020;-54
2022/12/20 00:04:35;;;;;;;8.40;1.63;;;;;;;;;;5041212;27;94662;-54
2022/12/20 00:07:03;;;;;;;1.53;1.17;;;;;;;;;;5044824;27;94197;-54
2022/12/20 00:09:31;;;;;;;1.70;1.40;;;;;;;;;;5039869;27;94206;-54
2022/12/20 00:12:00;;;;;;;1.27;1.17;;;;;;;;;;5037577;27;93943;-53
2022/12/20 00:14:29;;;;;;;1.70;1.17;;;;;;;;;;5052892;27;92128;-54
2022/12/20 00:16:58;;;;;;;2.00;1.00;;;;;;;;;;5037264;27;92145;-54
2022/12/20 00:19:26;;;;;;;3.10;1.87;;;;;;;;;;5036617;27;94194;-54
2022/12/20 00:21:54;;;;;;;1.37;1.10;;;;;;;;;;5036668;28;93962;-54
2022/12/20 00:24:23;;;;;;;1.40;1.00;;;;;;;;;;5037065;28;92529;-54
2022/12/20 00:26:53;;;;;;;1.63;1.30;;;;;;;;;;5050863;27;92108;-54
2022/12/20 00:29:22;;;;;;;2.10;1.17;;;;;;;;;;5057365;27;95460;-54
2022/12/20 00:31:51;;;;;;;1.27;1.17;;;;;;;;;;5057277;27;93920;-53
2022/12/20 00:34:20;;;;;;;1.23;1.10;;;;;;;;;;5057945;27;92027;-54
2022/12/20 00:36:48;;;;;;;1.03;0.87;;;;;;;;;;5058025;27;91996;-54
2022/12/20 00:39:16;;;;;;;2.27;1.17;;;;;;;;;;5057619;27;94163;-54
2022/12/20 00:41:45;;;;;;;1.20;1.00;;;;;;;;;;5056759;27;93955;-53
2022/12/20 00:44:13;;;;;;;1.67;1.07;;;;;;;;;;5057609;27;92160;-54
2022/12/20 00:46:41;;;;;;;1.43;1.10;;;;;;;;;;5058557;27;91331;-54
2022/12/20 00:49:11;;;;;;;2.20;1.40;;;;;;;;;;5052430;27;93292;-54
2022/12/20 00:51:39;;;;;;;1.33;0.97;;;;;;;;;;5068194;27;93801;-54
2022/12/20 00:54:07;;;;;;;0.90;0.83;;;;;;;;;;5077442;27;93067;-54
2022/12/20 00:56:36;;;;;;;2.00;1.13;;;;;;;;;;5058873;27;92093;-54
2022/12/20 00:59:04;;;;;;;1.23;0.80;;;;;;;;;;5057627;27;94452;-54
2022/12/20 01:01:34;;;;;;;1.23;0.90;;;;;;;;;;5056777;27;93944;-54
2022/12/20 01:04:02;;;;;;;0.93;0.80;;;;;;;;;;5057940;27;92070;-55
2022/12/20 01:06:32;;;;;;;1.20;1.10;;;;;;;;;;5057420;27;93162;-54
2022/12/20 01:09:00;;;;;;;0.90;0.90;;;;;;;;;;5036500;27;94316;-54
2022/12/20 01:11:29;;;;;;;0.83;0.70;;;;;;;;;;5038816;27;93061;-54
2022/12/20 01:13:58;;;;;;;0.80;0.60;;;;;;;;;;5056175;27;92056;-53
2022/12/20 01:16:27;;;;;;;2.90;1.03;;;;;;;;;;5054600;27;92103;-54
2022/12/20 01:18:55;;;;;;;1.90;1.53;;;;;;;;;;5060161;27;95107;-54
2022/12/20 01:21:24;;;;;;;0.90;0.70;;;;;;;;;;5059451;27;93769;-54
2022/12/20 01:23:53;;;;;;;1.30;1.20;;;;;;;;;;5061140;27;92568;-54
2022/12/20 01:26:22;;;;;;;0.80;0.80;;;;;;;;;;5060584;27;92145;-54
2022/12/20 01:28:52;;;;;;;1.67;1.00;;;;;;;;;;5060659;27;92951;-54
2022/12/20 01:31:21;;;;;;;2.00;0.67;;;;;;;;;;5060517;27;94082;-54
2022/12/20 01:33:49;;;;;;;0.93;0.80;;;;;;;;;;5061263;27;92046;-54
2022/12/20 01:36:18;;;;;;;1.10;0.90;;;;;;;;;;5061281;27;91285;-54
2022/12/20 01:38:46;;;;;;;1.23;1.13;;;;;;;;;;5060398;27;94135;-55
2022/12/20 01:41:16;;;;;;;1.63;0.77;;;;;;;;;;5060193;27;93981;-60
2022/12/20 01:43:46;;;;;;;2.37;0.97;;;;;;;;;;5060305;27;92967;-55
2022/12/20 01:46:14;;;;;;;3.80;0.83;;;;;;;;;;5067642;27;92183;-54
2022/12/20 01:48:43;;;;;;;3.37;1.00;;;;;;;;;;5064584;27;92903;-53
2022/12/20 01:51:11;;;;;;;0.80;0.80;;;;;;;;;;5063814;27;92910;-54
2022/12/20 01:53:39;;;;;;;1.67;0.97;;;;;;;;;;5067226;27;92037;-54
2022/12/20 01:56:08;;;;;;;0.50;0.50;;;;;;;;;;5066608;27;92141;-54
2022/12/20 01:58:37;;;;;;;1.03;0.83;;;;;;;;;;5058038;27;94036;-54
2022/12/20 02:01:06;;;;;;;0.90;0.90;;;;;;;;;;5070268;27;93922;-53
2022/12/20 02:03:34;;;;;;;1.33;1.23;;;;;;;;;;5080889;27;92113;-54
2022/12/20 02:06:16;;;;;;;3.53;1.20;;;;;;;;;;5080897;27;92247;-55
2022/12/20 02:08:44;;;;;;;0.70;0.70;;;;;;;;;;5039134;27;94270;-54
2022/12/20 02:11:15;;;;;;;0.77;0.77;;;;;;;;;;5060516;27;94991;-54
2022/12/20 02:13:46;;;;;;;1.20;1.07;;;;;;;;;;5060341;27;92127;-54
2022/12/20 02:16:15;;;;;;;1.53;0.70;;;;;;;;;;5077074;27;92191;-54
2022/12/20 02:18:44;;;;;;;0.83;0.83;;;;;;;;;;5063339;27;94113;-54
2022/12/20 02:21:14;;;;;;;0.90;0.70;;;;;;;;;;5075504;27;93836;-54
2022/12/20 02:23:53;;;;;;;1.43;1.07;;;;;;;;;;5043660;27;92103;-54
2022/12/20 02:26:33;;;;;;;5.00;0.73;;;;;;;;;;5049254;27;91372;-54
2022/12/20 02:29:11;;;;;;;1.13;1.07;;;;;;;;;;5073700;27;93921;-54
2022/12/20 02:31:43;;;;;;;0.57;0.57;;;;;;;;;;5059673;27;92932;-53
2022/12/20 02:34:12;;;;;;;1.00;1.00;;;;;;;;;;5058909;27;93045;-53
2022/12/20 02:36:40;;;;;;;1.00;0.90;;;;;;;;;;5060672;27;92124;-53
2022/12/20 02:39:09;;;;;;;0.80;0.80;;;;;;;;;;5059817;27;93894;-54
2022/12/20 02:41:38;;;;;;;0.90;0.80;;;;;;;;;;5059345;27;94168;-54
2022/12/20 02:46:56;;;;;;;0.50;0.50;;;;;;;;;;5075605;27;92080;-54
2022/12/20 02:49:25;;;;;;;1.63;1.00;;;;;;;;;;5075977;27;94139;-54
2022/12/20 02:51:54;;;;;;;0.97;0.70;;;;;;;;;;5073616;27;93957;-53
2022/12/20 02:54:22;;;;;;;0.83;0.70;;;;;;;;;;5068897;27;92020;-54
2022/12/20 02:56:51;;;;;;;0.73;0.70;;;;;;;;;;5072851;27;92149;-54
2022/12/20 02:59:20;;;;;;;0.70;0.70;;;;;;;;;;5063421;27;95275;-53
2022/12/20 03:01:49;;;;;;;1.60;0.87;;;;;;;;;;5071346;27;94832;-54
2022/12/20 03:04:19;;;;;;;0.73;0.73;;;;;;;;;;5059685;27;92120;-54
2022/12/20 03:06:57;;;;;;;1.10;1.07;;;;;;;;;;5059224;27;92027;-54
2022/12/20 03:09:25;;;;;;;2.30;0.97;;;;;;;;;;5078783;27;94125;-54
2022/12/20 03:11:54;;;;;;;0.83;0.83;;;;;;;;;;5078857;27;93830;-54
2022/12/20 03:14:22;;;;;;;2.93;1.27;;;;;;;;;;5078671;27;92247;-54
2022/12/20 03:16:50;;;;;;;0.70;0.70;;;;;;;;;;5074560;27;91366;-54
2022/12/20 03:19:20;;;;;;;1.13;1.00;;;;;;;;;;5059523;27;94247;-54
2022/12/20 03:21:48;;;;;;;1.80;0.87;;;;;;;;;;5057970;27;92797;-53
2022/12/20 03:24:17;;;;;;;1.43;1.00;;;;;;;;;;5069695;27;93060;-54
2022/12/20 03:26:45;;;;;;;0.80;0.80;;;;;;;;;;5067658;27;92645;-54
2022/12/20 03:29:13;;;;;;;0.60;0.60;;;;;;;;;;5068375;27;94308;-54
2022/12/20 03:31:42;;;;;;;1.50;1.27;;;;;;;;;;5078282;27;93164;-53
2022/12/20 03:34:10;;;;;;;0.70;0.70;;;;;;;;;;5078824;27;92100;-53
2022/12/20 03:36:39;;;;;;;0.60;0.60;;;;;;;;;;5061595;27;92301;-54
2022/12/20 03:39:08;;;;;;;1.30;1.07;;;;;;;;;;5077030;27;93112;-54
2022/12/20 03:41:36;;;;;;;1.40;0.70;;;;;;;;;;5073729;27;92879;-54
2022/12/20 03:44:04;;;;;;;1.10;0.97;;;;;;;;;;5064524;27;92130;-54
2022/12/20 03:46:33;;;;;;;0.83;0.83;;;;;;;;;;5076775;27;92185;-53
2022/12/20 03:49:01;;;;;;;1.30;0.80;;;;;;;;;;5063256;27;95135;-54
2022/12/20 03:51:30;;;;;;;0.60;0.60;;;;;;;;;;5058741;27;94898;-54
2022/12/20 03:53:59;;;;;;;1.53;0.87;;;;;;;;;;5063039;27;92057;-54
2022/12/20 03:56:28;;;;;;;0.73;0.73;;;;;;;;;;5069073;27;92052;-54
2022/12/20 03:58:56;;;;;;;0.73;0.70;;;;;;;;;;5059018;27;92957;-54
2022/12/20 04:01:26;;;;;;;1.03;0.87;;;;;;;;;;5059330;27;92059;-54
2022/12/20 04:03:55;;;;;;;0.77;0.70;;;;;;;;;;5078299;27;92143;-54
2022/12/20 04:06:23;;;;;;;1.23;0.90;;;;;;;;;;5078410;27;91271;-54
2022/12/20 04:08:51;;;;;;;1.07;0.87;;;;;;;;;;5064428;27;92948;-54
2022/12/20 04:11:21;;;;;;;3.00;0.77;;;;;;;;;;5057815;27;93855;-54
2022/12/20 04:13:49;;;;;;;1.80;0.90;;;;;;;;;;5057780;27;93043;-54
2022/12/20 04:16:19;;;;;;;0.93;0.73;;;;;;;;;;5058178;27;92083;-54
2022/12/20 04:18:48;;;;;;;0.80;0.77;;;;;;;;;;5058021;27;94132;-54
2022/12/20 04:21:16;;;;;;;0.80;0.80;;;;;;;;;;5067750;27;92285;-54
2022/12/20 04:23:44;;;;;;;1.47;0.80;;;;;;;;;;5078355;27;92100;-53
2022/12/20 04:26:13;;;;;;;0.73;0.67;;;;;;;;;;5077700;27;92292;-54
2022/12/20 04:28:42;;;;;;;0.90;0.60;;;;;;;;;;5062942;27;94150;-54
2022/12/20 04:31:11;;;;;;;0.77;0.77;;;;;;;;;;5057744;27;92939;-54
2022/12/20 04:33:40;;;;;;;0.73;0.70;;;;;;;;;;5058316;27;92092;-54
2022/12/20 04:36:09;;;;;;;1.57;0.77;;;;;;;;;;5058176;27;92111;-54
2022/12/20 04:38:37;;;;;;;0.97;0.83;;;;;;;;;;5056847;27;94762;-54
2022/12/20 04:41:05;;;;;;;1.17;0.73;;;;;;;;;;5058268;27;93882;-54
2022/12/20 04:43:34;;;;;;;0.60;0.60;;;;;;;;;;5058237;27;92066;-54
2022/12/20 04:46:03;;;;;;;0.97;0.80;;;;;;;;;;5058937;27;92171;-54
2022/12/20 04:48:32;;;;;;;0.53;0.53;;;;;;;;;;5071268;27;94198;-54
2022/12/20 04:51:20;;;;;;;0.40;0.40;;;;;;;;;;5047650;27;93818;-53
2022/12/20 04:53:47;;;;;;;0.77;0.77;;;;;;;;;;5061608;27;92131;-54
2022/12/20 04:56:17;;;;;;;0.67;0.60;;;;;;;;;;5070040;27;91468;-54
2022/12/20 04:58:45;;;;;;;1.47;0.87;;;;;;;;;;5080818;27;94191;-54
2022/12/20 05:01:15;;;;;;;0.80;0.80;;;;;;;;;;5076592;27;93843;-54
2022/12/20 05:03:43;;;;;;;0.60;0.60;;;;;;;;;;5063268;27;94883;-53
2022/12/20 05:06:12;;;;;;;0.37;0.37;;;;;;;;;;5060983;27;92070;-54
2022/12/20 05:08:40;;;;;;;0.67;0.67;;;;;;;;;;5078576;27;94103;-54
2022/12/20 05:11:08;;;;;;;0.43;0.43;;;;;;;;;;5079730;27;93801;-54
2022/12/20 05:13:36;;;;;;;0.47;0.43;;;;;;;;;;5071530;27;92864;-53
2022/12/20 05:16:05;;;;;;;1.23;0.60;;;;;;;;;;5063489;27;92073;-54
2022/12/20 05:18:35;;;;;;;0.70;0.70;;;;;;;;;;5080881;27;93678;-54
2022/12/20 05:26:35;;;;;;;1.17;0.90;;;;;;;;;;5061774;27;91985;-54
2022/12/20 05:29:03;;;;;;;0.50;0.50;;;;;;;;;;5059750;27;94145;-54
2022/12/20 05:31:32;;;;;;;0.60;0.60;;;;;;;;;;5060207;27;93776;-54
2022/12/20 05:34:01;;;;;;;0.60;0.60;;;;;;;;;;5060585;27;92120;-54
2022/12/20 05:36:30;;;;;;;0.67;0.67;;;;;;;;;;5060364;27;92034;-54
2022/12/20 05:38:59;;;;;;;1.63;0.93;;;;;;;;;;5066752;27;93303;-54
2022/12/20 05:41:31;;;;;;;0.90;0.80;;;;;;;;;;5080752;27;93625;-54
2022/12/20 05:44:00;;;;;;;1.30;0.90;;;;;;;;;;5080170;27;92081;-54
2022/12/20 05:46:29;;;;;;;0.63;0.63;;;;;;;;;;5081034;27;91272;-54
2022/12/20 05:48:57;;;;;;;0.67;0.50;;;;;;;;;;5078833;27;94193;-54
2022/12/20 05:51:26;;;;;;;0.80;0.80;;;;;;;;;;5077990;27;93951;-54
2022/12/20 05:53:55;;;;;;;0.50;0.50;;;;;;;;;;5080032;27;92981;-53
2022/12/20 05:56:23;;;;;;;0.83;0.67;;;;;;;;;;5070208;27;92136;-54
2022/12/20 05:58:51;;;;;;;0.50;0.50;;;;;;;;;;5058997;27;94056;-54
2022/12/20 06:01:19;;;;;;;1.67;0.70;;;;;;;;;;5060569;27;92888;-54
2022/12/20 06:03:49;;;;;;;0.77;0.77;;;;;;;;;;5059993;27;94427;-54
2022/12/20 06:06:18;;;;;;;0.93;0.70;;;;;;;;;;5068894;27;92072;-54
2022/12/20 06:08:47;;;;;;;0.67;0.40;;;;;;;;;;5066601;27;94206;-54
2022/12/20 06:11:16;;;;;;;0.60;0.60;;;;;;;;;;5059467;27;92851;-54
2022/12/20 06:13:44;;;;;;;0.60;0.60;;;;;;;;;;5060217;27;92060;-53
2022/12/20 06:16:12;;;;;;;0.77;0.63;;;;;;;;;;5071346;27;92181;-54
2022/12/20 06:18:41;;;;;;;1.80;0.70;;;;;;;;;;5077628;27;95189;-54
2022/12/20 06:21:09;;;;;;;0.80;0.80;;;;;;;;;;5079901;27;94875;-54
2022/12/20 06:23:37;;;;;;;0.83;0.60;;;;;;;;;;5079634;27;93499;-54
2022/12/20 06:26:08;;;;;;;0.40;0.40;;;;;;;;;;5072680;27;92783;-54
2022/12/20 06:28:41;;;;;;;1.23;0.60;;;;;;;;;;5073790;27;93313;-54
2022/12/20 06:31:09;;;;;;;0.70;0.70;;;;;;;;;;5076470;27;93498;-54
2022/12/20 06:33:38;;;;;;;0.50;0.50;;;;;;;;;;5079924;27;92083;-54
2022/12/20 06:36:07;;;;;;;1.30;0.70;;;;;;;;;;5063716;27;91347;-54
2022/12/20 06:38:35;;;;;;;0.43;0.40;;;;;;;;;;5059166;27;94232;-54
2022/12/20 06:41:04;;;;;;;1.47;0.77;;;;;;;;;;5064875;27;93173;-54
2022/12/20 06:43:34;;;;;;;0.50;0.50;;;;;;;;;;5079644;27;92947;-55
2022/12/20 06:46:02;;;;;;;0.80;0.63;;;;;;;;;;5077161;27;92130;-54
2022/12/20 06:48:30;;;;;;;0.70;0.50;;;;;;;;;;5079814;27;94246;-55
2022/12/20 06:50:58;;;;;;;1.10;0.50;;;;;;;;;;5063472;27;93531;-54
2022/12/20 06:53:27;;;;;;;0.50;0.50;;;;;;;;;;5073421;27;92343;-54
2022/12/20 06:55:55;;;;;;;1.13;0.53;;;;;;;;;;5077651;27;92005;-54
2022/12/20 06:58:24;;;;;;;1.13;0.90;;;;;;;;;;5069463;27;94298;-54
2022/12/20 07:00:53;;;;;;;0.50;0.50;;;;;;;;;;5058856;27;93908;-54
2022/12/20 07:03:22;;;;;;;0.53;0.53;;;;;;;;;;5058904;27;92133;-54
2022/12/20 07:05:52;;;;;;;0.53;0.50;;;;;;;;;;5058835;27;92127;-54
2022/12/20 07:08:20;;;;;;;1.23;0.80;;;;;;;;;;5058968;27;95126;-54
2022/12/20 07:10:48;;;;;;;1.00;0.70;;;;;;;;;;5059631;27;95748;-54
2022/12/20 07:13:17;;;;;;;0.60;0.60;;;;;;;;;;5063985;27;92079;-54
2022/12/20 07:15:45;;;;;;;0.80;0.80;;;;;;;;;;5078919;27;92144;-54
2022/12/20 07:18:15;;;;;;;1.27;0.67;;;;;;;;;;5078279;27;94321;-54
2022/12/20 07:20:43;;;;;;;0.77;0.43;;;;;;;;;;5061872;27;93871;-54
2022/12/20 07:23:11;;;;;;;0.60;0.60;;;;;;;;;;5068212;27;93462;-54
2022/12/20 07:25:40;;;;;;;0.93;0.80;;;;;;;;;;5060386;27;91404;-54
2022/12/20 07:28:08;;;;;;;0.83;0.80;;;;;;;;;;5059075;27;94333;-54
2022/12/20 07:30:37;;;;;;;0.70;0.70;;;;;;;;;;5064035;27;93985;-54
2022/12/20 07:33:06;;;;;;;0.77;0.70;;;;;;;;;;5077105;27;93002;-54
2022/12/20 07:35:36;;;;;;;1.40;0.80;;;;;;;;;;5079164;27;92066;-54
2022/12/20 07:38:04;;;;;;;0.90;0.67;;;;;;;;;;5060578;27;94218;-54
2022/12/20 07:40:33;;;;;;;0.80;0.70;;;;;;;;;;5061947;27;92795;-54
2022/12/20 07:43:01;;;;;;;0.50;0.47;;;;;;;;;;5077325;27;92208;-54
2022/12/20 07:45:29;;;;;;;0.47;0.47;;;;;;;;;;5057970;27;92079;-54
2022/12/20 07:47:58;;;;;;;0.63;0.63;;;;;;;;;;5058523;27;93128;-54
2022/12/20 07:50:37;;;;;;;0.50;0.50;;;;;;;;;;5056148;27;91588;-54
2022/12/20 07:53:06;;;;;;;0.47;0.47;;;;;;;;;;5037747;28;92023;-54
2022/12/20 07:55:35;;;;;;;2.77;0.50;;;;;;;;;;5042484;27;92028;-54
2022/12/20 07:58:05;;;;;;;0.53;0.40;;;;;;;;;;5053116;27;95093;-54
2022/12/20 08:00:33;;;;;;;0.40;0.40;;;;;;;;;;5055547;27;93718;-54
2022/12/20 08:03:03;;;;;;;0.70;0.70;;;;;;;;;;5044206;27;92127;-54
2022/12/20 08:05:31;;;;;;;0.50;0.50;;;;;;;;;;5038788;27;92121;-54
2022/12/20 08:08:01;;;;;;;0.50;0.50;;;;;;;;;;5037886;28;94249;-54
2022/12/20 08:10:29;;;;;;;0.60;0.60;;;;;;;;;;5039783;27;93378;-54
2022/12/20 08:12:58;;;;;;;0.83;0.83;;;;;;;;;;5056742;27;92284;-55
2022/12/20 08:15:26;;;;;;;0.60;0.60;;;;;;;;;;5056546;27;91676;-54
2022/12/20 08:17:55;;;;;;;0.50;0.50;;;;;;;;;;5055596;27;94217;-54
2022/12/20 08:20:23;;;;;;;0.50;0.50;;;;;;;;;;5055686;27;94161;-54
2022/12/20 08:22:51;;;;;;;0.63;0.60;;;;;;;;;;5059502;27;92992;-54
2022/12/20 08:25:21;;;;;;;1.07;0.97;;;;;;;;;;5060570;27;92584;-54
2022/12/20 08:27:50;;;;;;;0.77;0.77;;;;;;;;;;5061681;27;94282;-54
2022/12/20 08:30:18;;;;;;;0.60;0.60;;;;;;;;;;5061752;27;92998;-55
2022/12/20 08:32:46;;;;;;;0.87;0.40;;;;;;;;;;5062702;27;92108;-53
2022/12/20 08:35:15;;;;;;;0.40;0.40;;;;;;;;;;5062778;27;92078;-53
2022/12/20 08:37:43;;;;;;;3.10;0.70;;;;;;;;;;5062586;27;94048;-53
2022/12/20 08:40:12;;;;;;;0.60;0.60;;;;;;;;;;5062847;27;91351;-54
2022/12/20 08:42:42;;;;;;;1.67;0.53;;;;;;;;;;5062332;27;92045;-54
2022/12/20 08:45:11;;;;;;;0.40;0.40;;;;;;;;;;5062257;27;92172;-53
2022/12/20 08:47:39;;;;;;;1.50;0.60;;;;;;;;;;5061320;27;95154;-54
2022/12/20 08:50:08;;;;;;;0.63;0.63;;;;;;;;;;5061717;27;93306;-54
2022/12/20 08:52:36;;;;;;;0.50;0.50;;;;;;;;;;5061865;27;92142;-54
2022/12/20 08:55:05;;;;;;;0.90;0.57;;;;;;;;;;5062152;27;92073;-54
2022/12/20 08:57:34;;;;;;;0.57;0.50;;;;;;;;;;5061581;27;94186;-54
2022/12/20 09:00:04;;;;;;;1.37;0.50;;;;;;;;;;5061366;27;93884;-54
2022/12/20 09:02:32;;;;;;;0.80;0.80;;;;;;;;;;5061855;27;93088;-53
2022/12/20 09:05:01;;;;;;;0.60;0.60;;;;;;;;;;5062580;27;91344;-54
2022/12/20 09:07:29;;;;;;;0.40;0.40;;;;;;;;;;5061992;27;93409;-55
2022/12/20 09:09:57;;;;;;;0.50;0.50;;;;;;;;;;5061655;27;94050;-54
2022/12/20 09:12:26;;;;;;;0.80;0.80;;;;;;;;;;5061196;27;93013;-54
2022/12/20 09:14:54;;;;;;;0.63;0.63;;;;;;;;;;5061620;27;92052;-54
2022/12/20 09:17:24;;;;;;;0.30;0.30;;;;;;;;;;5061192;27;93545;-53
2022/12/20 09:19:54;;;;;;;0.40;0.40;;;;;;;;;;5061737;27;94037;-53
2022/12/20 09:22:22;;;;;;;0.63;0.57;;;;;;;;;;5061456;27;92081;-53
2022/12/20 09:24:50;;;;;;;2.00;0.60;;;;;;;;;;5061749;27;92086;-54
2022/12/20 09:27:19;;;;;;;0.50;0.50;;;;;;;;;;5061037;27;94147;-53
2022/12/20 09:29:47;;;;;;;0.67;0.60;;;;;;;;;;5061398;27;94006;-53
2022/12/20 09:32:16;;;;;;;0.73;0.40;;;;;;;;;;5061211;27;91994;-54
2022/12/20 09:34:47;;;;;;;1.37;0.40;;;;;;;;;;5061396;27;92077;-54
2022/12/20 09:37:15;;;;;;;0.50;0.50;;;;;;;;;;5060571;27;94088;-54
2022/12/20 09:39:43;;;;;;;1.53;0.57;;;;;;;;;;5061044;27;95213;-53
2022/12/20 09:42:15;;;;;;;0.53;0.40;;;;;;;;;;5061216;27;92125;-54
2022/12/20 09:44:43;;;;;;;0.70;0.53;;;;;;;;;;5061014;27;92006;-54
2022/12/20 09:47:12;;;;;;;0.73;0.40;;;;;;;;;;5061165;27;94022;-53
2022/12/20 09:49:40;;;;;;;1.50;0.40;;;;;;;;;;5060633;27;91871;-53
2022/12/20 09:52:30;;;;;;;0.50;0.50;;;;;;;;;;5060424;27;91939;-54
2022/12/20 09:55:02;;;;;;;0.70;0.43;;;;;;;;;;5059678;27;91267;-54
2022/12/20 09:57:32;;;;;;;0.33;0.33;;;;;;;;;;5061046;27;93120;-54
2022/12/20 10:00:00;;;;;;;0.50;0.50;;;;;;;;;;5060924;27;93815;-54
2022/12/20 10:02:29;;;;;;;1.13;0.63;;;;;;;;;;5060595;27;93141;-54
2022/12/20 10:05:18;;;;;;;0.47;0.47;;;;;;;;;;5061314;27;92123;-54
2022/12/20 10:07:49;;;;;;;0.50;0.50;;;;;;;;;;5061041;27;94066;-54
2022/12/20 10:10:36;;;;;;;0.53;0.50;;;;;;;;;;5060651;27;92660;-54
2022/12/20 10:13:07;;;;;;;0.50;0.50;;;;;;;;;;5060821;27;92023;-54
2022/12/20 10:15:36;;;;;;;0.83;0.50;;;;;;;;;;5060283;27;91707;-53
2022/12/20 10:18:18;;;;;;;0.60;0.60;;;;;;;;;;5060241;27;93064;-54
2022/12/20 10:20:47;;;;;;;3.17;0.57;;;;;;;;;;5060717;27;93458;-54
2022/12/20 10:23:22;;;;;;;0.53;0.53;;;;;;;;;;5060289;27;92039;-54
2022/12/20 10:26:01;;;;;;;0.50;0.50;;;;;;;;;;5060826;27;92011;-54
2022/12/20 10:28:30;;;;;;;0.60;0.60;;;;;;;;;;5059858;27;95067;-54
2022/12/20 10:30:59;;;;;;;1.80;0.50;;;;;;;;;;5060431;27;94779;-54
2022/12/20 10:33:28;;;;;;;0.83;0.73;;;;;;;;;;5060662;27;92049;-54
2022/12/20 10:35:56;;;;;;;0.40;0.40;;;;;;;;;;5060559;27;92071;-54
2022/12/20 10:38:25;;;;;;;0.30;0.30;;;;;;;;;;5060078;27;93222;-54
2022/12/20 10:41:01;;;;;;;0.53;0.50;;;;;;;;;;5059994;27;93887;-53
2022/12/20 10:43:50;;;;;;;0.70;0.70;;;;;;;;;;5059308;27;92224;-54
2022/12/20 10:46:19;;;;;;;1.07;0.50;;;;;;;;;;5060882;27;91371;-54
2022/12/20 10:48:47;;;;;;;2.30;0.80;;;;;;;;;;5059761;27;92881;-54
2022/12/20 10:51:17;;;;;;;0.50;0.50;;;;;;;;;;5059441;27;92739;-54
2022/12/20 10:53:55;;;;;;;0.70;0.70;;;;;;;;;;5059810;27;93061;-54
2022/12/20 10:56:27;;;;;;;1.00;0.90;;;;;;;;;;5060522;27;91934;-54
2022/12/20 10:58:56;;;;;;;1.73;0.43;;;;;;;;;;5060359;27;93178;-53
2022/12/20 11:01:26;;;;;;;1.30;0.60;;;;;;;;;;5059448;27;93933;-54
2022/12/20 11:03:55;;;;;;;1.03;0.93;;;;;;;;;;5059747;27;92077;-55
2022/12/20 11:06:25;;;;;;;1.53;0.93;;;;;;;;;;5060209;27;92030;-54
2022/12/20 11:08:53;;;;;;;7.43;0.87;;;;;;;;;;5059834;27;93149;-53
2022/12/20 11:11:29;;;;;;;1.80;0.70;;;;;;;;;;5060273;27;93669;-54
2022/12/20 11:13:57;;;;;;;0.60;0.60;;;;;;;;;;5059989;27;92094;-54
2022/12/20 11:16:27;;;;;;;1.63;0.63;;;;;;;;;;5060305;27;92033;-54
2022/12/20 11:18:57;;;;;;;1.77;0.70;;;;;;;;;;5059408;27;97707;-53
2022/12/20 11:21:27;;;;;;;3.33;1.07;;;;;;;;;;5059463;27;94697;-54
2022/12/20 11:23:58;;;;;;;3.03;1.00;;;;;;;;;;5060233;27;92150;-53
2022/12/20 11:26:31;;;;;;;9.17;1.03;;;;;;;;;;5059861;27;92040;-53
2022/12/20 11:29:04;;;;;;;1.37;1.00;;;;;;;;;;5059443;27;94247;-54
2022/12/20 11:31:36;;;;;;;1.40;0.80;;;;;;;;;;5058541;27;93936;-54
2022/12/20 11:34:08;;;;;;;2.07;0.83;;;;;;;;;;5058801;27;92150;-54
2022/12/20 11:36:42;;;;;;;1.83;1.30;;;;;;;;;;5059040;27;91765;-53
2022/12/20 11:39:13;;;;;;;5.40;1.83;;;;;;;;;;5058002;27;94566;-53
2022/12/20 11:41:44;;;;;;;1.83;0.90;;;;;;;;;;5058913;27;93971;-53
2022/12/20 11:44:16;;;;;;;5.10;1.20;;;;;;;;;;5059005;27;93112;-53
2022/12/20 11:46:59;;;;;;;4.90;1.00;;;;;;;;;;5059316;27;92133;-54
2022/12/20 11:49:33;;;;;;;2.10;1.00;;;;;;;;;;5059104;27;93199;-54
2022/12/20 11:52:04;;;;;;;4.27;1.50;;;;;;;;;;5058658;27;93837;-53
2022/12/20 11:54:33;;;;;;;12.80;1.63;;;;;;;;;;5059221;27;92017;-53
2022/12/20 11:57:04;;;;;;;5.43;1.00;;;;;;;;;;5058885;27;92019;-54
2022/12/20 11:59:35;;;;;;;2.37;1.20;;;;;;;;;;5058611;27;94198;-54
2022/12/20 12:02:06;;;;;;;6.43;1.37;;;;;;;;;;5058974;27;91960;-55
2022/12/20 12:04:36;;;;;;;6.60;0.90;;;;;;;;;;5059021;27;92092;-54
2022/12/20 12:07:05;;;;;;;7.63;1.00;;;;;;;;;;5059136;27;92142;-54
2022/12/20 12:09:34;;;;;;;6.60;1.67;;;;;;;;;;5057888;27;95193;-54
2022/12/20 12:12:04;;;;;;;2.63;1.47;;;;;;;;;;5058230;27;93910;-54
2022/12/20 12:14:39;;;;;;;3.73;1.23;;;;;;;;;;5058923;27;92182;-54
2022/12/20 12:17:08;;;;;;;1.83;1.50;;;;;;;;;;5059134;27;92076;-54
2022/12/20 12:19:37;;;;;;;2.20;1.40;;;;;;;;;;5058537;27;93123;-54
2022/12/20 12:22:06;;;;;;;11.40;2.43;;;;;;;;;;5058477;27;92927;-53
2022/12/20 12:24:37;;;;;;;9.23;1.00;;;;;;;;;;5059365;27;91929;-54
2022/12/20 12:27:08;;;;;;;3.37;0.90;;;;;;;;;;5059265;27;91393;-54
2022/12/20 12:29:43;;;;;;;6.70;1.63;;;;;;;;;;5058756;27;94467;-54
2022/12/20 12:32:14;;;;;;;2.20;1.23;;;;;;;;;;5058823;27;92741;-54
2022/12/20 12:34:46;;;;;;;7.70;1.40;;;;;;;;;;5058248;27;92859;-54
2022/12/20 12:37:22;;;;;;;6.67;1.53;;;;;;;;;;5058786;27;92084;-54
2022/12/20 12:40:01;;;;;;;2.67;1.03;;;;;;;;;;5058885;27;94244;-54
2022/12/20 12:42:42;;;;;;;1.87;1.17;;;;;;;;;;5058363;27;93016;-54
2022/12/20 12:45:14;;;;;;;14.47;2.53;;;;;;;;;;5059030;27;92079;-54
2022/12/20 12:47:45;;;;;;;9.47;2.07;;;;;;;;;;5058712;27;91939;-54
2022/12/20 12:50:17;;;;;;;2.53;1.50;;;;;;;;;;5058600;27;93305;-55
2022/12/20 12:52:46;;;;;;;2.67;1.33;;;;;;;;;;5058771;27;93686;-54
2022/12/20 12:55:35;;;;;;;3.63;2.00;;;;;;;;;;5058290;27;92018;-54
2022/12/20 12:58:15;;;;;;;1.53;1.30;;;;;;;;;;5056847;27;93272;-54
2022/12/20 13:00:49;;;;;;;1.67;1.50;;;;;;;;;;5057604;27;95151;-54
2022/12/20 13:03:35;;;;;;;2.17;1.50;;;;;;;;;;5058305;27;93880;-54
2022/12/20 13:06:18;;;;;;;3.57;1.27;;;;;;;;;;5059117;27;92019;-54
2022/12/20 13:08:50;;;;;;;5.50;2.20;;;;;;;;;;5061737;27;92009;-54
2022/12/20 13:11:29;;;;;;;4.30;1.80;;;;;;;;;;5061894;27;94136;-54
2022/12/20 13:16:53;;;;;;;1.70;1.33;;;;;;;;;;5084873;27;83154;-54
2022/12/20 13:19:40;;;;;;;8.40;2.00;;;;;;;;;;5082151;27;81551;-53
2022/12/20 13:22:14;;;;;;;4.03;1.50;;;;;;;;;;5081610;27;81834;-54
2022/12/20 13:24:55;;;;;;;4.13;1.93;;;;;;;;;;5082289;27;81540;-54
2022/12/20 13:27:28;;;;;;;2.30;1.47;;;;;;;;;;5082153;27;81860;-54
2022/12/20 13:29:58;;;;;;;1.73;1.33;;;;;;;;;;5081682;27;81601;-54
2022/12/20 13:32:45;;;;;;;1.87;1.37;;;;;;;;;;5082275;27;81764;-54
2022/12/20 13:38:23;;;;;;;2.43;1.27;;;;;;;;;;5084788;27;81638;-54
2022/12/20 13:40:55;;;;;;;2.17;1.47;;;;;;;;;;5081733;27;81839;-54
2022/12/20 13:43:24;;;;;;;2.63;1.20;;;;;;;;;;5082135;27;81730;-54
2022/12/20 13:45:54;;;;;;;1.60;1.30;;;;;;;;;;5082296;27;83905;-54
2022/12/20 13:48:23;;;;;;;4.03;1.03;;;;;;;;;;5082158;27;82449;-54
2022/12/20 13:50:52;;;;;;;1.50;1.40;;;;;;;;;;5082166;27;81582;-54
2022/12/20 13:53:21;;;;;;;2.07;1.17;;;;;;;;;;5082028;27;81787;-54
2022/12/20 13:55:49;;;;;;;1.73;1.40;;;;;;;;;;5081885;27;81618;-54
2022/12/20 13:58:19;;;;;;;1.17;1.07;;;;;;;;;;5081749;27;82391;-54
2022/12/20 14:00:47;;;;;;;3.00;1.67;;;;;;;;;;5081958;27;81687;-53
2022/12/20 14:03:20;;;;;;;2.03;1.20;;;;;;;;;;5081907;27;81757;-54
2022/12/20 14:05:49;;;;;;;2.27;1.47;;;;;;;;;;5081551;27;82740;-54
2022/12/20 14:08:18;;;;;;;2.67;2.23;;;;;;;;;;5081527;27;82155;-54
2022/12/20 14:10:47;;;;;;;2.20;1.77;;;;;;;;;;5082073;27;81453;-54
2022/12/20 14:13:20;;;;;;;4.83;1.40;;;;;;;;;;5081687;27;81783;-54
2022/12/20 14:15:48;;;;;;;1.63;1.53;;;;;;;;;;5081720;27;82740;-54
2022/12/20 14:18:17;;;;;;;3.00;1.27;;;;;;;;;;5081531;27;82290;-54
2022/12/20 14:20:46;;;;;;;1.70;1.10;;;;;;;;;;5081745;27;81737;-54
2022/12/20 14:23:15;;;;;;;1.83;1.10;;;;;;;;;;5081360;27;81760;-54
2022/12/20 14:25:44;;;;;;;2.63;1.60;;;;;;;;;;5081741;27;83972;-54
2022/12/20 14:28:16;;;;;;;3.90;1.30;;;;;;;;;;5081159;27;81692;-54
2022/12/20 14:30:55;;;;;;;8.87;2.00;;;;;;;;;;5081726;27;82295;-54
2022/12/20 14:33:27;;;;;;;2.03;1.33;;;;;;;;;;5081401;27;81890;-54
2022/12/20 14:35:55;;;;;;;1.50;1.40;;;;;;;;;;5080912;27;82682;-54
2022/12/20 14:38:24;;;;;;;1.63;0.90;;;;;;;;;;5081171;27;83413;-54
2022/12/20 14:40:52;;;;;;;5.50;1.17;;;;;;;;;;5081440;27;82138;-54
2022/12/20 14:43:25;;;;;;;3.50;0.70;;;;;;;;;;5081349;27;81749;-53
2022/12/20 14:46:08;;;;;;;2.43;1.17;;;;;;;;;;5080532;27;82850;-54
2022/12/20 14:48:37;;;;;;;2.03;1.37;;;;;;;;;;5072252;27;82086;-53
2022/12/20 14:51:05;;;;;;;6.67;1.70;;;;;;;;;;5067233;27;81667;-53
2022/12/20 14:53:33;;;;;;;5.83;1.17;;;;;;;;;;5067285;27;81776;-53
2022/12/20 14:56:04;;;;;;;1.17;0.87;;;;;;;;;;5067463;27;81905;-54
2022/12/20 14:58:33;;;;;;;1.87;1.07;;;;;;;;;;5067255;27;82144;-54
2022/12/20 15:01:02;;;;;;;0.80;0.80;;;;;;;;;;5067027;27;81579;-54
2022/12/20 15:03:32;;;;;;;1.20;1.10;;;;;;;;;;5067463;27;81878;-55
2022/12/20 15:06:01;;;;;;;2.70;1.37;;;;;;;;;;5067123;27;81723;-56
2022/12/20 15:08:31;;;;;;;0.97;0.97;;;;;;;;;;5066704;27;81833;-53
2022/12/20 15:11:02;;;;;;;0.87;0.87;;;;;;;;;;5066730;27;82437;-56
2022/12/20 15:13:31;;;;;;;4.57;1.50;;;;;;;;;;5067205;27;81938;-54
2022/12/20 15:16:00;;;;;;;2.43;1.67;;;;;;;;;;5067162;27;82746;-53